Terminal Aerodrome Forecast
Issued by NWS

Home | Current Version | Previous Version | Graphics & Text | Print | Product List | Glossary On
Versions: 1 2 3 4 5 6 7 8 9 10 11 12 13 14 15 16
165
FTUS43 KBIS 260522
TAFJMS
TAF
KJMS 260522Z 2606/2706 03017G26KT P6SM OVC015
     FM260800 01014G23KT P6SM VCSH OVC010
     FM261600 36017G25KT P6SM OVC010
     FM262200 01015G23KT P6SM OVC020
     FM270100 01011KT P6SM OVC020=

USA.gov is the U.S. government's official web portal to all federal, state and local government web resources and services.